createdAt,value
2018-12-14T00:02:02.888Z,2.20
2018-12-14T00:04:31.517Z,2.17
2018-12-14T00:06:59.853Z,2.10
2018-12-14T00:09:28.197Z,2.00
2018-12-14T00:11:58.256Z,1.80
2018-12-14T00:14:27.540Z,2.40
2018-12-14T00:16:55.985Z,2.17
2018-12-14T00:19:24.317Z,1.87
2018-12-14T00:21:53.605Z,2.30
2018-12-14T00:24:21.954Z,1.70
2018-12-14T00:26:52.204Z,2.13
2018-12-14T00:29:20.575Z,1.97
2018-12-14T00:31:49.896Z,2.77
2018-12-14T00:34:18.290Z,3.03
2018-12-14T00:36:46.627Z,2.57
2018-12-14T00:39:15.374Z,1.73
2018-12-14T00:41:51.686Z,1.87
2018-12-14T00:44:16.695Z,2.43
2018-12-14T00:46:45.139Z,2.30
2018-12-14T00:49:14.087Z,2.20
2018-12-14T00:51:43.970Z,2.20
2018-12-14T00:54:12.306Z,1.80
2018-12-14T00:56:40.648Z,2.07
2018-12-14T00:59:10.069Z,2.50
2018-12-14T01:01:38.401Z,1.90
2018-12-14T01:04:07.081Z,1.87
2018-12-14T01:06:35.500Z,1.87
2018-12-14T01:09:05.080Z,1.90
2018-12-14T01:11:36.137Z,1.80
2018-12-14T01:14:04.481Z,2.23
2018-12-14T01:16:32.822Z,1.90
2018-12-14T01:19:01.166Z,2.00
2018-12-14T01:21:29.509Z,2.10
2018-12-14T01:23:58.450Z,1.67
2018-12-14T01:26:26.851Z,1.67
2018-12-14T01:28:56.389Z,2.27
2018-12-14T01:31:24.752Z,1.70
2018-12-14T01:33:53.093Z,1.83
2018-12-14T01:36:22.490Z,1.97
2018-12-14T01:38:51.069Z,1.60
2018-12-14T01:41:20.282Z,1.60
2018-12-14T01:43:49.565Z,1.60
2018-12-14T01:46:17.918Z,1.97
2018-12-14T01:48:46.253Z,1.57
2018-12-14T01:51:15.784Z,1.73
2018-12-14T01:53:44.193Z,1.40
2018-12-14T01:56:12.886Z,1.53
2018-12-14T01:58:42.744Z,1.50
2018-12-14T02:01:11.750Z,1.53
2018-12-14T02:03:40.102Z,1.93
2018-12-14T02:06:08.442Z,1.40
2018-12-14T02:08:37.768Z,1.60
2018-12-14T02:11:07.407Z,1.70
2018-12-14T02:13:35.737Z,1.40
2018-12-14T02:16:04.089Z,1.70
2018-12-14T02:18:32.766Z,1.30
2018-12-14T02:21:01.618Z,1.40
2018-12-14T02:23:29.952Z,1.63
2018-12-14T02:25:58.293Z,1.20
2018-12-14T02:28:26.973Z,1.23
2018-12-14T02:30:55.308Z,1.30
2018-12-14T02:33:23.769Z,1.13
2018-12-14T02:35:52.284Z,1.50
2018-12-14T02:38:20.927Z,1.23
2018-12-14T02:40:50.798Z,1.40
2018-12-14T02:43:22.552Z,1.53
2018-12-14T02:45:50.894Z,1.40
2018-12-14T02:48:19.560Z,1.30
2018-12-14T02:50:47.927Z,1.70
2018-12-14T02:53:17.601Z,1.37
2018-12-14T02:55:45.936Z,1.40
2018-12-14T02:58:15.598Z,1.20
2018-12-14T03:00:45.129Z,1.67
2018-12-14T03:03:13.474Z,1.40
2018-12-14T03:05:41.809Z,1.60
2018-12-14T03:08:11.250Z,1.47
2018-12-14T03:10:40.409Z,1.30
2018-12-14T03:13:08.748Z,1.30
2018-12-14T03:15:37.089Z,1.60
2018-12-14T03:18:06.401Z,1.17
2018-12-14T03:20:34.770Z,1.40
2018-12-14T03:23:03.109Z,1.40
2018-12-14T03:25:31.822Z,1.40
2018-12-14T03:28:00.161Z,1.90
2018-12-14T03:30:28.634Z,1.43
2018-12-14T03:32:57.875Z,1.50
2018-12-14T03:35:26.204Z,1.67
2018-12-14T03:37:54.648Z,1.23
2018-12-14T03:40:25.776Z,1.30
2018-12-14T03:42:55.320Z,1.40
2018-12-14T03:45:23.658Z,1.60
2018-12-14T03:47:52.148Z,1.50
2018-12-14T03:50:20.769Z,1.70
2018-12-14T03:52:50.190Z,1.60
2018-12-14T03:55:18.529Z,1.40
2018-12-14T03:57:46.876Z,1.63
2018-12-14T04:00:17.414Z,1.63
2018-12-14T04:02:45.862Z,1.47
2018-12-14T04:05:16.110Z,1.87
2018-12-14T04:07:46.024Z,1.60
2018-12-14T04:10:15.468Z,1.50
2018-12-14T04:12:43.927Z,1.60
2018-12-14T04:15:13.611Z,1.53
2018-12-14T04:17:41.955Z,1.50
2018-12-14T04:20:10.300Z,1.60
2018-12-14T04:22:38.685Z,1.87
2018-12-14T04:25:07.030Z,1.50
2018-12-14T04:27:36.038Z,1.80
2018-12-14T04:30:04.883Z,2.00
2018-12-14T04:32:33.524Z,1.60
2018-12-14T04:35:01.867Z,1.43
2018-12-14T04:37:30.236Z,1.50
2018-12-14T04:39:59.532Z,1.40
2018-12-14T04:42:28.609Z,1.70
2018-12-14T04:44:57.978Z,1.67
2018-12-14T04:47:26.629Z,1.90
2018-12-14T04:49:54.971Z,1.90
2018-12-14T04:52:24.805Z,2.23
2018-12-14T04:54:53.149Z,2.20
2018-12-14T04:57:22.431Z,1.83
2018-12-14T04:59:51.733Z,1.73
2018-12-14T05:02:20.577Z,1.90
2018-12-14T05:04:48.910Z,1.90
2018-12-14T05:07:17.242Z,1.70
2018-12-14T05:09:47.436Z,1.90
2018-12-14T05:12:15.853Z,1.90
2018-12-14T05:14:46.033Z,2.20
2018-12-14T05:17:14.379Z,1.77
2018-12-14T05:19:42.777Z,1.83
2018-12-14T05:22:11.197Z,2.00
2018-12-14T05:24:39.542Z,2.20
2018-12-14T05:27:08.321Z,2.00
2018-12-14T05:29:36.677Z,2.17
2018-12-14T05:32:05.014Z,2.20
2018-12-14T05:34:33.369Z,1.93
2018-12-14T05:37:01.796Z,1.70
2018-12-14T05:39:30.839Z,2.00
2018-12-14T05:42:00.245Z,2.20
2018-12-14T05:44:29.950Z,2.20
2018-12-14T05:46:58.296Z,2.00
2018-12-14T05:49:26.630Z,2.27
2018-12-14T05:51:55.214Z,1.83
2018-12-14T05:54:24.386Z,2.33
2018-12-14T05:56:53.140Z,2.03
2018-12-14T05:59:23.065Z,2.03
2018-12-14T06:01:51.413Z,2.07
2018-12-14T06:04:19.757Z,1.90
2018-12-14T06:06:48.120Z,2.20
2018-12-14T06:09:17.559Z,2.10
2018-12-14T06:11:47.416Z,2.13
2018-12-14T06:14:15.772Z,2.13
2018-12-14T06:16:44.120Z,2.30
2018-12-14T06:19:12.514Z,2.00
2018-12-14T06:21:40.853Z,2.17
2018-12-14T06:24:09.536Z,2.30
2018-12-14T06:26:37.985Z,2.20
2018-12-14T06:29:06.325Z,2.53
2018-12-14T06:31:34.669Z,2.27
2018-12-14T06:34:03.019Z,2.23
2018-12-14T06:36:32.041Z,2.37
2018-12-14T06:39:00.531Z,2.07
2018-12-14T06:41:29.701Z,2.73
2018-12-14T06:43:58.988Z,2.17
2018-12-14T06:46:27.431Z,2.47
2018-12-14T06:48:55.773Z,2.37
2018-12-14T06:51:24.461Z,2.53
2018-12-14T06:53:54.346Z,2.40
2018-12-14T06:56:22.757Z,2.47
2018-12-14T06:58:52.245Z,2.60
2018-12-14T07:01:21.941Z,2.13
2018-12-14T07:03:50.821Z,2.53
2018-12-14T07:06:19.169Z,2.97
2018-12-14T07:08:48.209Z,2.13
2018-12-14T07:11:17.770Z,2.50
2018-12-14T07:13:46.099Z,2.17
2018-12-14T07:16:14.437Z,1.93
2018-12-14T07:18:42.776Z,2.13
2018-12-14T07:21:11.122Z,1.83
2018-12-14T07:23:39.845Z,1.83
2018-12-14T07:26:08.204Z,2.63
2018-12-14T07:28:36.761Z,2.80
2018-12-14T07:31:05.089Z,3.13
2018-12-14T07:33:33.448Z,3.40
2018-12-14T07:36:02.647Z,3.87
2018-12-14T07:38:30.977Z,3.67
2018-12-14T07:41:00.712Z,4.13
2018-12-14T07:43:30.501Z,4.00
2018-12-14T07:45:58.826Z,4.17
2018-12-14T07:48:27.157Z,4.10
2018-12-14T07:50:56.540Z,3.97
2018-12-14T07:53:25.549Z,4.87
2018-12-14T07:55:54.321Z,4.70
2018-12-14T07:58:22.734Z,4.27
2018-12-14T08:00:52.049Z,4.13
2018-12-14T08:03:20.893Z,4.10
2018-12-14T08:05:49.281Z,4.73
2018-12-14T08:08:18.566Z,4.60
2018-12-14T08:10:47.449Z,4.37
2018-12-14T08:13:15.802Z,4.80
2018-12-14T08:15:44.960Z,4.57
2018-12-14T08:18:13.413Z,4.50
2018-12-14T08:20:41.758Z,4.27
2018-12-14T08:23:10.472Z,4.40
2018-12-14T08:25:38.813Z,5.27
2018-12-14T08:28:07.746Z,4.53
2018-12-14T08:30:36.081Z,4.93
2018-12-14T08:33:04.753Z,4.90
2018-12-14T08:35:33.541Z,4.43
2018-12-14T08:38:01.873Z,4.30
2018-12-14T08:40:31.602Z,5.10
2018-12-14T08:43:01.071Z,4.50
2018-12-14T08:45:29.418Z,5.17
2018-12-14T08:47:58.035Z,4.50
2018-12-14T08:50:26.585Z,4.47
2018-12-14T08:52:55.665Z,4.80
2018-12-14T08:55:25.433Z,4.63
2018-12-14T08:57:54.743Z,4.97
2018-12-14T09:00:23.746Z,4.83
2018-12-14T09:02:52.085Z,4.13
2018-12-14T09:05:20.434Z,4.47
2018-12-14T09:07:50.078Z,4.03
2018-12-14T09:10:19.229Z,4.67
2018-12-14T09:12:47.561Z,4.40
2018-12-14T09:15:15.978Z,4.03
2018-12-14T09:17:44.521Z,4.43
2018-12-14T09:20:12.853Z,3.80
2018-12-14T09:22:41.645Z,4.00
2018-12-14T09:25:10.046Z,4.10
2018-12-14T09:27:38.451Z,3.73
2018-12-14T09:30:07.049Z,3.70
2018-12-14T09:32:35.779Z,3.63
2018-12-14T09:35:05.106Z,3.97
2018-12-14T09:37:33.495Z,3.57
2018-12-14T09:40:03.921Z,4.20
2018-12-14T09:42:32.585Z,4.40
2018-12-14T09:45:01.665Z,4.07
2018-12-14T09:47:30.003Z,4.37
2018-12-14T09:49:59.240Z,4.40
2018-12-14T09:52:27.601Z,4.57
2018-12-14T09:54:57.150Z,4.40
2018-12-14T09:57:25.498Z,4.13
2018-12-14T09:59:55.816Z,4.67
2018-12-14T10:02:24.149Z,4.33
2018-12-14T10:04:52.488Z,4.40
2018-12-14T10:07:20.857Z,4.80
2018-12-14T10:09:50.698Z,4.27
2018-12-14T10:12:19.030Z,5.10
2018-12-14T10:14:47.986Z,4.63
2018-12-14T10:17:16.329Z,4.67
2018-12-14T10:19:44.663Z,4.47
2018-12-14T10:22:13.126Z,4.43
2018-12-14T10:24:41.505Z,3.80
2018-12-14T10:27:09.862Z,3.77
2018-12-14T10:29:38.573Z,4.37
2018-12-14T10:32:07.210Z,4.20
2018-12-14T10:34:35.677Z,4.20
2018-12-14T10:37:04.645Z,4.10
2018-12-14T10:39:33.021Z,3.40
2018-12-14T10:42:02.641Z,3.97
2018-12-14T10:44:31.939Z,3.80
2018-12-14T10:47:00.915Z,3.87
2018-12-14T10:49:31.772Z,3.70
2018-12-14T10:52:00.529Z,3.70
2018-12-14T10:54:29.668Z,4.00
2018-12-14T10:56:58.010Z,3.50
2018-12-14T10:59:27.435Z,3.70
2018-12-14T11:01:56.264Z,4.00
2018-12-14T11:04:25.114Z,3.30
2018-12-14T11:06:53.834Z,3.73
2018-12-14T11:09:22.810Z,3.53
2018-12-14T11:11:52.190Z,3.53
2018-12-14T11:14:20.827Z,3.80
2018-12-14T11:16:50.368Z,3.67
2018-12-14T11:19:18.932Z,3.30
2018-12-14T11:21:47.490Z,3.47
2018-12-14T11:24:15.856Z,3.23
2018-12-14T11:26:44.195Z,3.70
2018-12-14T11:29:12.967Z,3.60
2018-12-14T11:31:41.862Z,3.27
2018-12-14T11:34:10.205Z,3.53
2018-12-14T11:36:39.029Z,3.80
2018-12-14T11:39:09.459Z,3.40
2018-12-14T11:41:38.439Z,3.53
2018-12-14T11:44:08.054Z,3.83
2018-12-14T11:46:37.047Z,3.50
2018-12-14T11:49:05.428Z,3.23
2018-12-14T11:51:33.772Z,3.53
2018-12-14T11:54:03.132Z,3.30
2018-12-14T11:56:32.141Z,3.30
2018-12-14T11:59:00.850Z,3.47
2018-12-14T12:01:30.993Z,3.80
2018-12-14T12:03:59.434Z,3.03
2018-12-14T12:06:27.769Z,3.27
2018-12-14T12:08:57.422Z,3.63
2018-12-14T12:11:26.093Z,3.20
2018-12-14T12:13:54.441Z,3.80
2018-12-14T12:16:22.799Z,3.40
2018-12-14T12:18:51.221Z,3.57
2018-12-14T12:21:20.231Z,3.30
2018-12-14T12:23:55.086Z,3.17
2018-12-14T12:26:19.266Z,3.43
2018-12-14T12:28:47.592Z,3.37
2018-12-14T12:31:16.138Z,3.63
2018-12-14T12:33:44.841Z,3.93
2018-12-14T12:36:13.187Z,3.80
2018-12-14T12:38:41.653Z,3.37
2018-12-14T12:41:10.905Z,3.50
2018-12-14T12:43:41.085Z,3.70
2018-12-14T12:46:09.465Z,3.30
2018-12-14T12:48:38.569Z,2.93
2018-12-14T12:51:07.217Z,3.73
2018-12-14T12:53:35.557Z,3.50
2018-12-14T12:56:05.036Z,3.50
2018-12-14T12:58:33.380Z,2.93
2018-12-14T13:01:02.347Z,2.80
2018-12-14T13:03:30.685Z,3.20
2018-12-14T13:05:59.042Z,2.73
2018-12-14T13:08:28.786Z,2.83
2018-12-14T13:10:57.141Z,2.93
2018-12-14T13:13:26.538Z,3.40
2018-12-14T13:15:54.887Z,2.40
2018-12-14T13:18:24.044Z,3.33
2018-12-14T13:20:52.382Z,3.50
2018-12-14T13:23:20.725Z,2.87
2018-12-14T13:25:49.082Z,2.97
2018-12-14T13:28:17.430Z,3.77
2018-12-14T13:30:46.798Z,4.27
2018-12-14T13:33:15.800Z,4.13
2018-12-14T13:35:44.268Z,3.50
2018-12-14T13:38:14.264Z,4.17
2018-12-14T13:40:43.941Z,3.80
2018-12-14T13:43:13.440Z,3.97
2018-12-14T13:45:41.812Z,2.87
2018-12-14T13:48:10.279Z,3.80
2018-12-14T13:50:38.645Z,2.97
2018-12-14T13:53:06.973Z,3.63
2018-12-14T13:55:36.195Z,3.53
2018-12-14T13:58:04.537Z,3.47
2018-12-14T14:00:33.699Z,3.43
2018-12-14T14:03:02.313Z,3.50
2018-12-14T14:05:30.896Z,3.30
2018-12-14T14:08:00.680Z,3.00
2018-12-14T14:10:29.030Z,3.10
2018-12-14T14:12:57.373Z,3.17
2018-12-14T14:15:25.811Z,3.73
2018-12-14T14:17:54.157Z,3.03
2018-12-14T14:20:22.594Z,3.10
2018-12-14T14:22:51.013Z,3.40
2018-12-14T14:25:19.343Z,3.83
2018-12-14T14:27:47.828Z,3.37
2018-12-14T14:30:16.683Z,3.27
2018-12-14T14:32:45.401Z,4.00
2018-12-14T14:35:13.983Z,3.47
2018-12-14T14:37:42.537Z,3.93
2018-12-14T14:40:12.014Z,4.13
2018-12-14T14:42:40.345Z,4.00
2018-12-14T14:45:09.713Z,4.43
2018-12-14T14:47:38.053Z,4.03
2018-12-14T14:50:08.186Z,4.50
2018-12-14T14:52:36.638Z,4.57
2018-12-14T14:55:06.739Z,4.60
2018-12-14T14:57:35.685Z,3.93
2018-12-14T15:00:06.669Z,4.03
2018-12-14T15:02:35.632Z,4.93
2018-12-14T15:05:04.209Z,4.67
2018-12-14T15:07:34.209Z,4.93
2018-12-14T15:10:02.554Z,4.13
2018-12-14T15:12:32.004Z,4.83
2018-12-14T15:15:06.375Z,4.20
2018-12-14T15:17:30.861Z,5.03
2018-12-14T15:20:00.112Z,4.83
2018-12-14T15:22:28.457Z,5.20
2018-12-14T15:24:56.785Z,4.93
2018-12-14T15:27:25.418Z,4.80
2018-12-14T15:29:53.811Z,4.70
2018-12-14T15:32:22.596Z,5.47
2018-12-14T15:34:51.005Z,4.90
2018-12-14T15:37:19.346Z,5.23
2018-12-14T15:39:47.680Z,4.87
2018-12-14T15:42:17.476Z,5.43
2018-12-14T15:44:47.395Z,4.57
2018-12-14T15:47:15.741Z,4.63
2018-12-14T15:49:44.077Z,4.87
2018-12-14T15:52:12.434Z,4.73
2018-12-14T15:54:40.781Z,5.57
2018-12-14T15:57:11.087Z,5.27
2018-12-14T15:59:40.337Z,4.77
2018-12-14T16:02:08.677Z,4.30
2018-12-14T16:04:37.076Z,4.70
2018-12-14T16:07:05.487Z,5.13
2018-12-14T16:09:34.921Z,4.80
2018-12-14T16:12:04.535Z,4.87
2018-12-14T16:14:34.482Z,3.80
2018-12-14T16:17:02.914Z,3.90
2018-12-14T16:19:31.290Z,4.53
2018-12-14T16:21:59.822Z,3.90
2018-12-14T16:24:28.506Z,3.57
2018-12-14T16:26:56.865Z,3.80
2018-12-14T16:29:25.248Z,3.53
2018-12-14T16:31:53.596Z,3.83
2018-12-14T16:34:22.521Z,4.17
2018-12-14T16:39:19.013Z,4.60
2018-12-14T16:41:48.632Z,3.90
2018-12-14T16:44:17.705Z,4.20
2018-12-14T16:46:46.054Z,4.90
2018-12-14T16:49:15.210Z,4.73
2018-12-14T16:51:44.849Z,4.13
2018-12-14T16:54:13.193Z,4.40
2018-12-14T16:56:42.261Z,3.70
2018-12-14T16:59:12.489Z,3.87
2018-12-14T17:01:40.968Z,4.03
2018-12-14T17:04:09.502Z,4.40
2018-12-14T17:06:37.917Z,4.07
2018-12-14T17:09:07.667Z,3.73
2018-12-14T17:11:36.079Z,3.63
2018-12-14T17:14:04.417Z,3.70
2018-12-14T17:16:33.132Z,3.83
2018-12-14T17:19:01.465Z,3.63
2018-12-14T17:21:29.889Z,4.13
2018-12-14T17:23:58.362Z,3.57
2018-12-14T17:26:26.752Z,4.10
2018-12-14T17:28:55.092Z,3.47
2018-12-14T17:31:25.049Z,3.80
2018-12-14T17:33:53.728Z,3.13
2018-12-14T17:36:22.065Z,3.73
2018-12-14T17:38:50.467Z,3.40
2018-12-14T17:41:19.542Z,3.53
2018-12-14T17:43:48.722Z,3.47
2018-12-14T17:46:17.057Z,3.83
2018-12-14T17:48:46.619Z,3.77
2018-12-14T17:51:14.942Z,3.60
2018-12-14T17:53:43.911Z,3.37
2018-12-14T17:56:13.682Z,3.40
2018-12-14T17:58:42.029Z,3.07
2018-12-14T18:01:11.612Z,4.40
2018-12-14T18:03:40.189Z,3.23
2018-12-14T18:06:08.638Z,4.00
2018-12-14T18:08:38.235Z,4.23
2018-12-14T18:11:06.561Z,3.93
2018-12-14T18:13:34.905Z,4.23
2018-12-14T18:16:03.774Z,4.33
2018-12-14T18:18:32.117Z,3.73
2018-12-14T18:21:00.548Z,3.63
2018-12-14T18:23:29.102Z,4.33
2018-12-14T18:25:57.428Z,4.27
2018-12-14T18:28:25.779Z,3.80
2018-12-14T18:30:54.241Z,3.73
2018-12-14T18:33:22.749Z,3.43
2018-12-14T18:35:51.108Z,3.90
2018-12-14T18:38:19.449Z,3.77
2018-12-14T18:40:48.984Z,3.43
2018-12-14T18:43:18.315Z,3.90
2018-12-14T18:45:52.933Z,4.37
2018-12-14T18:48:18.462Z,3.90
2018-12-14T18:50:46.830Z,3.90
2018-12-14T18:53:15.180Z,3.60
2018-12-14T18:55:43.518Z,3.73
2018-12-14T18:58:12.955Z,4.20
2018-12-14T19:00:42.274Z,4.77
2018-12-14T19:03:10.641Z,4.07
2018-12-14T19:05:39.937Z,4.00
2018-12-14T19:08:09.543Z,3.90
2018-12-14T19:10:38.018Z,4.20
2018-12-14T19:13:06.374Z,4.43
2018-12-14T19:15:34.846Z,3.80
2018-12-14T19:18:03.313Z,4.37
2018-12-14T19:20:31.739Z,3.97
2018-12-14T19:23:00.112Z,3.90
2018-12-14T19:25:28.481Z,3.57
2018-12-14T19:27:56.989Z,4.17
2018-12-14T19:30:25.721Z,3.60
2018-12-14T19:32:54.518Z,4.10
2018-12-14T19:35:23.197Z,3.73
2018-12-14T19:37:51.563Z,4.53
2018-12-14T19:40:20.906Z,3.80
2018-12-14T19:42:49.899Z,3.80
2018-12-14T19:45:19.855Z,3.50
2018-12-14T19:47:49.053Z,4.93
2018-12-14T19:50:17.410Z,4.57
2018-12-14T19:52:45.800Z,4.20
2018-12-14T19:55:14.288Z,4.20
2018-12-14T19:57:43.746Z,4.33
2018-12-14T20:00:13.275Z,4.40
2018-12-14T20:02:42.962Z,4.53
2018-12-14T20:05:12.943Z,4.43
2018-12-14T20:07:42.372Z,5.27
2018-12-14T20:10:10.743Z,4.33
2018-12-14T20:12:39.101Z,4.13
2018-12-14T20:15:07.510Z,4.10
2018-12-14T20:17:35.846Z,4.67
2018-12-14T20:20:04.955Z,4.70
2018-12-14T20:22:33.317Z,4.60
2018-12-14T20:25:01.671Z,4.07
2018-12-14T20:27:30.032Z,4.37
2018-12-14T20:29:58.398Z,4.07
2018-12-14T20:32:27.106Z,4.47
2018-12-14T20:34:56.271Z,4.70
2018-12-14T20:37:24.609Z,4.47
2018-12-14T20:39:52.944Z,3.93
2018-12-14T20:42:21.928Z,3.80
2018-12-14T20:44:51.280Z,3.93
2018-12-14T20:47:19.641Z,3.53
2018-12-14T20:49:49.408Z,4.20
2018-12-14T20:52:17.743Z,3.67
2018-12-14T20:54:46.108Z,3.57
2018-12-14T20:57:15.145Z,3.73
2018-12-14T20:59:45.374Z,4.13
2018-12-14T21:02:13.973Z,4.40
2018-12-14T21:04:42.432Z,3.83
2018-12-14T21:07:10.828Z,3.50
2018-12-14T21:09:40.104Z,3.57
2018-12-14T21:12:08.450Z,4.13
2018-12-14T21:14:37.208Z,4.10
2018-12-14T21:17:05.569Z,3.70
2018-12-14T21:19:33.980Z,4.10
2018-12-14T21:22:02.663Z,3.87
2018-12-14T21:24:31.025Z,3.57
2018-12-14T21:26:59.426Z,4.33
2018-12-14T21:29:27.761Z,3.30
2018-12-14T21:31:56.778Z,3.37
2018-12-14T21:34:25.905Z,3.40
2018-12-14T21:36:54.429Z,3.30
2018-12-14T21:39:24.364Z,3.13
2018-12-14T21:41:53.935Z,3.50
2018-12-14T21:44:24.161Z,3.70
2018-12-14T21:46:52.515Z,3.87
2018-12-14T21:49:22.143Z,3.87
2018-12-14T21:51:51.738Z,3.30
2018-12-14T21:54:20.109Z,3.70
2018-12-14T21:56:48.465Z,3.60
2018-12-14T21:59:18.104Z,3.67
2018-12-14T22:01:47.010Z,3.37
2018-12-14T22:04:15.362Z,3.97
2018-12-14T22:06:43.750Z,3.80
2018-12-14T22:09:13.501Z,3.97
2018-12-14T22:11:41.865Z,4.07
2018-12-14T22:14:10.282Z,3.40
2018-12-14T22:16:39.348Z,3.37
2018-12-14T22:19:08.848Z,3.67
2018-12-14T22:21:37.514Z,4.50
2018-12-14T22:24:05.935Z,4.37
2018-12-14T22:26:34.288Z,4.40
2018-12-14T22:29:02.630Z,3.80
2018-12-14T22:31:31.335Z,3.57
2018-12-14T22:34:00.914Z,4.57
2018-12-14T22:36:29.246Z,3.90
2018-12-14T22:38:58.259Z,4.43
2018-12-14T22:41:27.909Z,4.60
2018-12-14T22:43:57.506Z,3.90
2018-12-14T22:46:26.506Z,5.07
2018-12-14T22:48:55.316Z,4.30
2018-12-14T22:51:24.106Z,4.50
2018-12-14T22:53:52.432Z,4.57
2018-12-14T22:56:21.844Z,4.43
2018-12-14T22:58:52.381Z,4.10
2018-12-14T23:01:21.676Z,4.03
2018-12-14T23:03:50.370Z,4.10
2018-12-14T23:06:19.056Z,4.07
2018-12-14T23:08:48.316Z,5.03
2018-12-14T23:11:16.650Z,4.40
2018-12-14T23:13:45.143Z,5.00
2018-12-14T23:16:13.545Z,4.37
2018-12-14T23:18:41.897Z,4.93
2018-12-14T23:21:10.611Z,4.33
2018-12-14T23:23:39.326Z,4.37
2018-12-14T23:26:07.701Z,4.57
2018-12-14T23:28:36.053Z,4.23
2018-12-14T23:31:04.413Z,3.60
2018-12-14T23:33:33.626Z,5.13
2018-12-14T23:36:01.961Z,5.70
2018-12-14T23:38:30.317Z,5.07
2018-12-14T23:40:59.502Z,5.07
2018-12-14T23:43:29.449Z,5.50
2018-12-14T23:45:57.780Z,5.23
2018-12-14T23:48:26.114Z,5.00
2018-12-14T23:50:54.469Z,5.33
2018-12-14T23:53:24.393Z,5.70
2018-12-14T23:55:52.838Z,4.97
2018-12-14T23:58:22.322Z,5.30
